createdAt,value
2022-12-01T00:03:37.909Z,50.58
2022-12-01T00:08:41.137Z,50.03
2022-12-01T00:13:42.809Z,48.65
2022-12-01T00:18:44.913Z,58.67
2022-12-01T00:23:50.187Z,50.92
2022-12-01T00:28:53.408Z,67.55
2022-12-01T00:33:55.466Z,67.12
2022-12-01T00:38:58.616Z,60.55
2022-12-01T00:44:00.305Z,58.95
2022-12-01T00:49:02.066Z,58.95
2022-12-01T00:54:05.235Z,61.83
2022-12-01T00:59:10.206Z,54.15
2022-12-01T01:09:15.649Z,61.17
2022-12-01T01:14:17.395Z,64.70
2022-12-01T01:19:19.167Z,62.25
2022-12-01T01:24:22.257Z,69.37
2022-12-01T01:29:24.061Z,64.20
2022-12-01T01:34:25.866Z,59.65
2022-12-01T01:39:29.145Z,61.28
2022-12-01T01:44:50.022Z,59.05
2022-12-01T01:49:53.173Z,56.75
2022-12-01T01:54:56.459Z,59.97
2022-12-01T02:00:01.610Z,67.50
2022-12-01T02:05:06.438Z,64.05
2022-12-01T02:10:12.999Z,56.72
2022-12-01T02:15:23.104Z,52.45
2022-12-01T02:20:51.778Z,58.58
2022-12-01T02:26:10.898Z,63.20
2022-12-01T02:31:16.684Z,65.28
2022-12-01T02:36:26.171Z,75.37
2022-12-01T02:41:32.555Z,61.17
2022-12-01T02:46:39.453Z,64.25
2022-12-01T02:51:43.211Z,64.50
2022-12-01T02:56:45.062Z,67.40
2022-12-01T03:02:00.564Z,60.00
2022-12-01T03:07:11.319Z,65.28
2022-12-01T03:12:20.487Z,54.08
2022-12-01T03:17:29.044Z,55.30
2022-12-01T03:22:36.698Z,54.53
2022-12-01T03:28:00.640Z,69.47
2022-12-01T03:33:09.187Z,53.13
2022-12-01T03:38:14.442Z,59.83
2022-12-01T03:43:21.063Z,57.78
2022-12-01T03:48:25.489Z,59.80
2022-12-01T03:53:32.790Z,56.28
2022-12-01T03:58:40.032Z,54.08
2022-12-01T04:03:45.665Z,57.55
2022-12-01T04:08:47.455Z,63.72
2022-12-01T04:13:52.232Z,50.55
2022-12-01T04:18:55.389Z,61.60
2022-12-01T04:23:57.144Z,60.88
2022-12-01T04:28:59.083Z,66.32
2022-12-01T04:34:02.969Z,51.60
2022-12-01T04:39:05.129Z,58.25
2022-12-01T04:44:06.803Z,63.38
2022-12-01T04:49:10.119Z,67.37
2022-12-01T04:54:12.022Z,65.07
2022-12-01T04:59:14.002Z,68.25
2022-12-01T05:04:17.080Z,74.22
2022-12-01T05:09:18.804Z,66.07
2022-12-01T05:14:20.673Z,68.85
2022-12-01T05:19:23.828Z,65.70
2022-12-01T05:24:25.780Z,78.05
2022-12-01T05:29:27.483Z,64.20
2022-12-01T05:34:30.589Z,78.40
2022-12-01T05:39:35.400Z,67.97
2022-12-01T05:44:37.202Z,73.30
2022-12-01T05:49:40.256Z,66.85
2022-12-01T05:54:43.124Z,76.87
2022-12-01T05:59:44.814Z,69.60
2022-12-01T06:04:47.865Z,69.07
2022-12-01T06:09:49.928Z,73.70
2022-12-01T06:14:51.824Z,76.25
2022-12-01T06:19:54.933Z,63.87
2022-12-01T06:24:56.631Z,65.37
2022-12-01T06:29:58.366Z,74.07
2022-12-01T06:35:01.536Z,71.85
2022-12-01T06:40:06.120Z,57.67
2022-12-01T06:45:08.959Z,61.10
2022-12-01T06:50:12.476Z,60.30
2022-12-01T06:55:14.629Z,55.28
2022-12-01T07:00:17.321Z,54.90
2022-12-01T07:05:20.958Z,52.97
2022-12-01T07:10:22.643Z,49.65
2022-12-01T07:15:24.426Z,35.03
2022-12-01T07:20:27.719Z,41.20
2022-12-01T07:25:29.515Z,42.88
2022-12-01T07:30:31.379Z,38.53
2022-12-01T07:35:34.544Z,36.65
2022-12-01T07:40:36.199Z,37.15
2022-12-01T07:45:37.870Z,36.90
2022-12-01T07:50:40.861Z,37.33
2022-12-01T07:55:48.042Z,40.58
2022-12-01T08:00:49.743Z,35.38
2022-12-01T08:05:57.521Z,39.28
2022-12-01T08:11:01.092Z,33.90
2022-12-01T08:16:03.865Z,35.72
2022-12-01T08:21:09.354Z,41.80
2022-12-01T08:26:13.253Z,37.50
2022-12-01T08:31:17.215Z,34.90
2022-12-01T08:36:21.343Z,40.63
2022-12-01T08:41:23.460Z,42.47
2022-12-01T08:46:25.775Z,39.45
2022-12-01T08:51:29.190Z,35.90
2022-12-01T08:56:33.132Z,40.17
2022-12-01T09:01:35.941Z,39.17
2022-12-01T09:06:41.397Z,37.10
2022-12-01T09:11:43.391Z,41.45
2022-12-01T09:16:51.645Z,33.70
2022-12-01T09:21:54.787Z,36.65
2022-12-01T09:26:57.998Z,32.88
2022-12-01T09:32:00.716Z,42.60
2022-12-01T09:37:03.864Z,30.45
2022-12-01T09:42:12.119Z,33.60
2022-12-01T09:47:18.572Z,32.15
2022-12-01T09:52:23.810Z,27.33
2022-12-01T09:57:30.612Z,29.27
2022-12-01T10:02:37.646Z,36.53
2022-12-01T10:07:47.059Z,36.40
2022-12-01T10:12:48.809Z,34.28
2022-12-01T10:18:12.626Z,38.60
2022-12-01T10:23:33.671Z,28.87
2022-12-01T10:28:57.433Z,30.62
2022-12-01T10:34:01.868Z,33.67
2022-12-01T10:39:06.891Z,32.35
2022-12-01T10:49:13.249Z,37.25
2022-12-01T10:54:16.827Z,33.17
2022-12-01T10:59:32.655Z,34.85
2022-12-01T11:04:38.836Z,34.17
2022-12-01T11:09:42.404Z,38.35
2022-12-01T11:14:48.296Z,37.47
2022-12-01T11:19:50.328Z,38.72
2022-12-01T11:25:27.455Z,38.50
2022-12-01T11:30:38.085Z,39.38
2022-12-01T11:36:06.240Z,40.70
2022-12-01T11:41:42.950Z,39.70
2022-12-01T11:47:07.627Z,44.55
2022-12-01T11:52:28.282Z,42.45
2022-12-01T11:57:54.650Z,41.45
2022-12-01T12:09:53.073Z,45.20
2022-12-01T12:15:35.379Z,44.03
2022-12-01T12:21:02.706Z,44.00
2022-12-01T12:26:24.540Z,46.42
2022-12-01T12:38:29.844Z,46.15
2022-12-01T13:01:37.743Z,44.45
2022-12-01T13:06:43.580Z,45.42
2022-12-01T13:11:49.827Z,47.00
2022-12-01T13:16:55.656Z,50.60
2022-12-01T13:21:58.886Z,42.72
2022-12-01T13:27:05.810Z,44.38
2022-12-01T13:32:31.425Z,49.63
2022-12-01T13:37:37.535Z,41.97
2022-12-01T13:43:04.337Z,45.03
2022-12-01T13:54:41.769Z,44.72
2022-12-01T14:06:43.276Z,46.00
2022-12-01T14:11:57.264Z,39.60
2022-12-01T14:17:10.122Z,39.55
2022-12-01T14:34:17.342Z,40.22
2022-12-01T14:39:26.106Z,41.97
2022-12-01T14:44:33.292Z,44.65
2022-12-01T14:49:40.460Z,40.30
2022-12-01T14:55:09.534Z,42.97
2022-12-01T15:00:29.562Z,47.58
2022-12-01T15:06:00.649Z,40.85
2022-12-01T15:11:18.989Z,46.42
2022-12-01T15:17:01.114Z,42.08
2022-12-01T15:22:24.560Z,42.35
2022-12-01T15:34:01.487Z,46.28
2022-12-01T15:39:06.965Z,43.08
2022-12-01T15:44:20.763Z,47.55
2022-12-01T15:49:26.347Z,46.40
2022-12-01T15:54:28.092Z,47.42
2022-12-01T15:59:37.476Z,48.33
2022-12-01T16:04:39.605Z,44.40
2022-12-01T16:09:42.840Z,48.50
2022-12-01T16:15:07.360Z,48.92
2022-12-01T16:20:27.291Z,49.63
2022-12-01T16:25:56.700Z,45.42
2022-12-01T16:31:18.129Z,50.28
2022-12-01T16:41:43.446Z,54.10
2022-12-01T16:52:56.888Z,52.17
2022-12-01T16:57:58.611Z,47.83
2022-12-01T17:03:00.936Z,44.53
2022-12-01T17:08:04.815Z,46.60
2022-12-01T17:13:06.621Z,52.75
2022-12-01T17:18:08.519Z,51.10
2022-12-01T17:23:11.977Z,49.78
2022-12-01T17:28:13.777Z,50.42
2022-12-01T17:33:15.653Z,59.72
2022-12-01T17:38:18.822Z,53.97
2022-12-01T17:43:20.507Z,46.00
2022-12-01T17:48:22.259Z,58.38
2022-12-01T17:53:26.841Z,63.42
2022-12-01T17:58:30.267Z,57.42
2022-12-01T18:03:32.323Z,57.03
2022-12-01T18:08:36.213Z,64.22
2022-12-01T18:13:39.338Z,65.35
2022-12-01T18:18:41.408Z,63.17
2022-12-01T18:23:48.679Z,60.60
2022-12-01T18:28:53.967Z,54.92
2022-12-01T18:33:57.897Z,67.28
2022-12-01T18:39:01.982Z,62.50
2022-12-01T18:44:04.147Z,70.23
2022-12-01T18:49:06.042Z,77.78
2022-12-01T18:54:12.397Z,63.50
2022-12-01T18:59:14.144Z,65.40
2022-12-01T19:04:16.565Z,62.67
2022-12-01T19:09:19.680Z,64.78
2022-12-01T19:14:21.359Z,60.92
2022-12-01T19:19:23.417Z,64.60
2022-12-01T19:24:26.641Z,62.88
2022-12-01T19:29:28.369Z,65.20
2022-12-01T19:34:30.100Z,70.00
2022-12-01T19:39:33.378Z,69.70
2022-12-01T19:44:35.183Z,66.50
2022-12-01T19:49:37.394Z,71.37
2022-12-01T19:54:40.599Z,73.87
2022-12-01T19:59:42.361Z,67.65
2022-12-01T20:04:44.068Z,65.25
2022-12-01T20:09:50.100Z,68.90
2022-12-01T20:14:52.447Z,69.03
2022-12-01T20:19:54.310Z,64.60
2022-12-01T20:24:57.387Z,63.95
2022-12-01T20:29:59.277Z,67.75
2022-12-01T20:35:01.011Z,66.85
2022-12-01T20:40:05.081Z,64.25
2022-12-01T20:45:07.722Z,61.63
2022-12-01T20:50:10.060Z,69.12
2022-12-01T20:55:13.125Z,65.43
2022-12-01T21:00:16.013Z,68.47
2022-12-01T21:05:19.690Z,67.60
2022-12-01T21:10:23.255Z,69.70
2022-12-01T21:15:30.672Z,71.90
2022-12-01T21:20:35.265Z,70.10
2022-12-01T21:25:39.718Z,64.72
2022-12-01T21:30:41.622Z,69.45
2022-12-01T21:35:46.962Z,66.22
2022-12-01T21:40:50.219Z,65.62
2022-12-01T21:45:57.898Z,74.90
2022-12-01T21:51:07.020Z,69.53
2022-12-01T21:56:19.175Z,74.00
2022-12-01T22:01:26.759Z,72.03
2022-12-01T22:06:35.168Z,66.00
2022-12-01T22:11:38.382Z,61.65
2022-12-01T22:16:42.676Z,67.62
2022-12-01T22:21:45.386Z,68.05
2022-12-01T22:26:50.766Z,64.93
2022-12-01T22:32:40.291Z,74.45
2022-12-01T22:37:45.406Z,67.93
2022-12-01T22:42:58.677Z,69.53
2022-12-01T22:48:01.901Z,77.00
2022-12-01T22:53:12.511Z,69.20
2022-12-01T22:58:24.445Z,62.85
2022-12-01T23:03:26.445Z,61.20
2022-12-01T23:08:28.204Z,67.12
2022-12-01T23:13:31.410Z,67.30
2022-12-01T23:18:33.416Z,76.82
2022-12-01T23:23:36.838Z,58.17
2022-12-01T23:28:40.079Z,67.12
2022-12-01T23:33:41.765Z,56.67
2022-12-01T23:38:45.463Z,72.70
2022-12-01T23:43:49.046Z,69.82
2022-12-01T23:48:52.675Z,72.82
2022-12-01T23:53:55.890Z,63.05
2022-12-01T23:59:00.923Z,61.50
